sensor_id;sensor_type;location;lat;lon;timestamp;temperature;humidity
35894;DHT22;21994;48.204;16.516;2024-02-15T00:02:20;8.40;99.90
35894;DHT22;21994;48.204;16.516;2024-02-15T00:04:46;8.40;99.90
35894;DHT22;21994;48.204;16.516;2024-02-15T00:07:12;8.60;99.90
35894;DHT22;21994;48.204;16.516;2024-02-15T00:09:37;8.50;99.90
35894;DHT22;21994;48.204;16.516;2024-02-15T00:12:03;8.50;99.90
35894;DHT22;21994;48.204;16.516;2024-02-15T00:14:30;8.40;99.90
35894;DHT22;21994;48.204;16.516;2024-02-15T00:16:57;8.40;99.90
35894;DHT22;21994;48.204;16.516;2024-02-15T00:19:23;8.30;99.90
35894;DHT22;21994;48.204;16.516;2024-02-15T00:21:49;8.20;99.90
35894;DHT22;21994;48.204;16.516;2024-02-15T00:24:15;8.20;99.90
35894;DHT22;21994;48.204;16.516;2024-02-15T00:26:41;8.30;99.90
35894;DHT22;21994;48.204;16.516;2024-02-15T00:29:08;8.30;99.90
35894;DHT22;21994;48.204;16.516;2024-02-15T00:31:34;8.40;99.90
35894;DHT22;21994;48.204;16.516;2024-02-15T00:34:01;8.50;99.90
35894;DHT22;21994;48.204;16.516;2024-02-15T00:36:28;8.40;99.90
35894;DHT22;21994;48.204;16.516;2024-02-15T00:38:55;8.60;99.90
35894;DHT22;21994;48.204;16.516;2024-02-15T00:41:21;8.40;99.90
35894;DHT22;21994;48.204;16.516;2024-02-15T00:43:47;8.60;99.90
35894;DHT22;21994;48.204;16.516;2024-02-15T00:46:13;8.50;99.90
35894;DHT22;21994;48.204;16.516;2024-02-15T00:48:39;8.60;99.90
35894;DHT22;21994;48.204;16.516;2024-02-15T00:51:06;8.70;99.90
35894;DHT22;21994;48.204;16.516;2024-02-15T00:53:31;8.80;99.90
35894;DHT22;21994;48.204;16.516;2024-02-15T00:55:57;8.60;99.90
35894;DHT22;21994;48.204;16.516;2024-02-15T00:58:23;8.50;99.90
35894;DHT22;21994;48.204;16.516;2024-02-15T01:00:49;8.50;99.90
35894;DHT22;21994;48.204;16.516;2024-02-15T01:03:15;8.40;99.90
35894;DHT22;21994;48.204;16.516;2024-02-15T01:05:42;8.40;99.90
35894;DHT22;21994;48.204;16.516;2024-02-15T01:08:07;8.70;99.90
35894;DHT22;21994;48.204;16.516;2024-02-15T01:10:34;8.40;99.90
35894;DHT22;21994;48.204;16.516;2024-02-15T01:13:00;8.30;99.90
35894;DHT22;21994;48.204;16.516;2024-02-15T01:15:26;8.10;99.90
35894;DHT22;21994;48.204;16.516;2024-02-15T01:17:52;7.90;99.90
35894;DHT22;21994;48.204;16.516;2024-02-15T01:20:17;7.70;99.90
35894;DHT22;21994;48.204;16.516;2024-02-15T01:22:43;7.50;99.90
35894;DHT22;21994;48.204;16.516;2024-02-15T01:25:09;7.40;99.90
35894;DHT22;21994;48.204;16.516;2024-02-15T01:27:36;7.20;99.90
35894;DHT22;21994;48.204;16.516;2024-02-15T01:30:02;7.00;99.90
35894;DHT22;21994;48.204;16.516;2024-02-15T01:32:29;6.90;99.90
35894;DHT22;21994;48.204;16.516;2024-02-15T01:34:56;6.80;99.90
35894;DHT22;21994;48.204;16.516;2024-02-15T01:37:22;6.60;99.90
35894;DHT22;21994;48.204;16.516;2024-02-15T01:39:48;6.50;99.90
35894;DHT22;21994;48.204;16.516;2024-02-15T01:42:14;6.40;99.90
35894;DHT22;21994;48.204;16.516;2024-02-15T01:44:40;6.30;99.90
35894;DHT22;21994;48.204;16.516;2024-02-15T01:47:06;6.30;99.90
35894;DHT22;21994;48.204;16.516;2024-02-15T01:49:32;6.10;99.90
35894;DHT22;21994;48.204;16.516;2024-02-15T01:51:58;6.20;99.90
35894;DHT22;21994;48.204;16.516;2024-02-15T01:54:26;6.10;99.90
35894;DHT22;21994;48.204;16.516;2024-02-15T01:56:52;6.10;99.90
35894;DHT22;21994;48.204;16.516;2024-02-15T01:59:18;6.20;99.90
35894;DHT22;21994;48.204;16.516;2024-02-15T02:01:44;6.20;99.90
35894;DHT22;21994;48.204;16.516;2024-02-15T02:04:10;6.20;99.90
35894;DHT22;21994;48.204;16.516;2024-02-15T02:06:37;6.30;99.90
35894;DHT22;21994;48.204;16.516;2024-02-15T02:09:03;6.40;99.90
35894;DHT22;21994;48.204;16.516;2024-02-15T02:11:29;6.50;99.90
35894;DHT22;21994;48.204;16.516;2024-02-15T02:13:55;6.50;99.90
35894;DHT22;21994;48.204;16.516;2024-02-15T02:16:31;6.50;99.90
35894;DHT22;21994;48.204;16.516;2024-02-15T02:18:57;6.50;99.90
35894;DHT22;21994;48.204;16.516;2024-02-15T02:21:25;6.50;99.90
35894;DHT22;21994;48.204;16.516;2024-02-15T02:23:57;6.50;99.90
35894;DHT22;21994;48.204;16.516;2024-02-15T02:26:24;6.50;99.90
35894;DHT22;21994;48.204;16.516;2024-02-15T02:28:50;6.60;99.90
35894;DHT22;21994;48.204;16.516;2024-02-15T02:31:19;6.50;99.90
35894;DHT22;21994;48.204;16.516;2024-02-15T02:33:48;6.50;99.90
35894;DHT22;21994;48.204;16.516;2024-02-15T02:36:17;6.50;99.90
35894;DHT22;21994;48.204;16.516;2024-02-15T02:38:43;6.60;99.90
35894;DHT22;21994;48.204;16.516;2024-02-15T02:41:11;6.60;99.90
35894;DHT22;21994;48.204;16.516;2024-02-15T02:43:40;6.60;99.90
35894;DHT22;21994;48.204;16.516;2024-02-15T02:46:06;6.60;99.90
35894;DHT22;21994;48.204;16.516;2024-02-15T02:48:36;6.70;99.90
35894;DHT22;21994;48.204;16.516;2024-02-15T02:51:02;6.70;99.90
35894;DHT22;21994;48.204;16.516;2024-02-15T02:53:28;6.70;99.90
35894;DHT22;21994;48.204;16.516;2024-02-15T02:55:55;6.60;99.90
35894;DHT22;21994;48.204;16.516;2024-02-15T02:58:21;6.60;99.90
35894;DHT22;21994;48.204;16.516;2024-02-15T03:00:48;6.50;99.90
35894;DHT22;21994;48.204;16.516;2024-02-15T03:03:15;6.50;99.90
35894;DHT22;21994;48.204;16.516;2024-02-15T03:05:41;6.50;99.90
35894;DHT22;21994;48.204;16.516;2024-02-15T03:08:11;6.50;99.90
35894;DHT22;21994;48.204;16.516;2024-02-15T03:10:38;6.40;99.90
35894;DHT22;21994;48.204;16.516;2024-02-15T03:13:05;6.40;99.90
35894;DHT22;21994;48.204;16.516;2024-02-15T03:15:31;6.50;99.90
35894;DHT22;21994;48.204;16.516;2024-02-15T03:17:58;6.50;99.90
35894;DHT22;21994;48.204;16.516;2024-02-15T03:20:24;6.70;99.90
35894;DHT22;21994;48.204;16.516;2024-02-15T03:22:56;6.70;99.90
35894;DHT22;21994;48.204;16.516;2024-02-15T03:25:23;6.80;99.90
35894;DHT22;21994;48.204;16.516;2024-02-15T03:27:58;6.90;99.90
35894;DHT22;21994;48.204;16.516;2024-02-15T03:30:25;6.80;99.90
35894;DHT22;21994;48.204;16.516;2024-02-15T03:32:52;6.80;99.90
35894;DHT22;21994;48.204;16.516;2024-02-15T03:35:19;7.00;99.90
35894;DHT22;21994;48.204;16.516;2024-02-15T03:37:48;7.00;99.90
35894;DHT22;21994;48.204;16.516;2024-02-15T03:40:17;7.10;99.90
35894;DHT22;21994;48.204;16.516;2024-02-15T03:42:46;7.30;99.90
35894;DHT22;21994;48.204;16.516;2024-02-15T03:45:12;7.20;99.90
35894;DHT22;21994;48.204;16.516;2024-02-15T03:47:38;7.10;99.90
35894;DHT22;21994;48.204;16.516;2024-02-15T03:50:07;7.00;99.90
35894;DHT22;21994;48.204;16.516;2024-02-15T03:52:35;7.00;99.90
35894;DHT22;21994;48.204;16.516;2024-02-15T03:55:02;7.10;99.90
35894;DHT22;21994;48.204;16.516;2024-02-15T03:57:27;7.10;99.90
35894;DHT22;21994;48.204;16.516;2024-02-15T03:59:54;7.00;99.90
35894;DHT22;21994;48.204;16.516;2024-02-15T04:02:22;7.00;99.90
35894;DHT22;21994;48.204;16.516;2024-02-15T04:04:54;7.00;99.90
35894;DHT22;21994;48.204;16.516;2024-02-15T04:07:23;7.00;99.90
35894;DHT22;21994;48.204;16.516;2024-02-15T04:09:55;7.00;99.90
35894;DHT22;21994;48.204;16.516;2024-02-15T04:12:20;7.00;99.90
35894;DHT22;21994;48.204;16.516;2024-02-15T04:14:47;7.00;99.90
35894;DHT22;21994;48.204;16.516;2024-02-15T04:17:13;7.00;99.90
35894;DHT22;21994;48.204;16.516;2024-02-15T04:19:41;7.00;99.90
35894;DHT22;21994;48.204;16.516;2024-02-15T04:22:06;7.20;99.90
35894;DHT22;21994;48.204;16.516;2024-02-15T04:24:35;7.20;99.90
35894;DHT22;21994;48.204;16.516;2024-02-15T04:27:09;7.10;99.90
35894;DHT22;21994;48.204;16.516;2024-02-15T04:29:39;7.20;99.90
35894;DHT22;21994;48.204;16.516;2024-02-15T04:32:06;7.20;99.90
35894;DHT22;21994;48.204;16.516;2024-02-15T04:34:35;7.20;99.90
35894;DHT22;21994;48.204;16.516;2024-02-15T04:37:02;7.10;99.90
35894;DHT22;21994;48.204;16.516;2024-02-15T04:39:38;7.10;99.90
35894;DHT22;21994;48.204;16.516;2024-02-15T04:42:03;7.20;99.90
35894;DHT22;21994;48.204;16.516;2024-02-15T04:44:31;7.20;99.90
35894;DHT22;21994;48.204;16.516;2024-02-15T04:47:00;7.20;99.90
35894;DHT22;21994;48.204;16.516;2024-02-15T04:49:27;7.20;99.90
35894;DHT22;21994;48.204;16.516;2024-02-15T04:51:54;7.20;99.90
35894;DHT22;21994;48.204;16.516;2024-02-15T04:54:20;7.20;99.90
35894;DHT22;21994;48.204;16.516;2024-02-15T04:56:47;7.20;99.90
35894;DHT22;21994;48.204;16.516;2024-02-15T04:59:13;7.20;99.90
35894;DHT22;21994;48.204;16.516;2024-02-15T05:01:41;7.30;99.90
35894;DHT22;21994;48.204;16.516;2024-02-15T05:04:10;7.30;99.90
35894;DHT22;21994;48.204;16.516;2024-02-15T05:06:37;7.30;99.90
35894;DHT22;21994;48.204;16.516;2024-02-15T05:09:04;7.40;99.90
35894;DHT22;21994;48.204;16.516;2024-02-15T05:11:33;7.40;99.90
35894;DHT22;21994;48.204;16.516;2024-02-15T05:14:02;7.30;99.90
35894;DHT22;21994;48.204;16.516;2024-02-15T05:16:30;7.40;99.90
35894;DHT22;21994;48.204;16.516;2024-02-15T05:18:57;7.30;99.90
35894;DHT22;21994;48.204;16.516;2024-02-15T05:21:23;7.40;99.90
35894;DHT22;21994;48.204;16.516;2024-02-15T05:23:48;7.30;99.90
35894;DHT22;21994;48.204;16.516;2024-02-15T05:26:14;7.40;99.90
35894;DHT22;21994;48.204;16.516;2024-02-15T05:28:42;7.50;99.90
35894;DHT22;21994;48.204;16.516;2024-02-15T05:31:12;7.40;99.90
35894;DHT22;21994;48.204;16.516;2024-02-15T05:33:42;7.50;99.90
35894;DHT22;21994;48.204;16.516;2024-02-15T05:36:13;7.50;99.90
35894;DHT22;21994;48.204;16.516;2024-02-15T05:38:39;7.50;99.90
35894;DHT22;21994;48.204;16.516;2024-02-15T05:41:06;7.50;99.90
35894;DHT22;21994;48.204;16.516;2024-02-15T05:43:36;7.50;99.90
35894;DHT22;21994;48.204;16.516;2024-02-15T05:46:02;7.50;99.90
35894;DHT22;21994;48.204;16.516;2024-02-15T05:48:28;7.60;99.90
35894;DHT22;21994;48.204;16.516;2024-02-15T05:50:55;7.60;99.90
35894;DHT22;21994;48.204;16.516;2024-02-15T05:53:21;7.70;99.90
35894;DHT22;21994;48.204;16.516;2024-02-15T05:55:47;7.90;99.90
35894;DHT22;21994;48.204;16.516;2024-02-15T05:58:15;8.00;99.90
35894;DHT22;21994;48.204;16.516;2024-02-15T06:00:42;8.00;99.90
35894;DHT22;21994;48.204;16.516;2024-02-15T06:03:12;8.00;99.90
35894;DHT22;21994;48.204;16.516;2024-02-15T06:05:39;7.90;99.90
35894;DHT22;21994;48.204;16.516;2024-02-15T06:08:05;7.90;99.90
35894;DHT22;21994;48.204;16.516;2024-02-15T06:10:31;7.80;99.90
35894;DHT22;21994;48.204;16.516;2024-02-15T06:12:57;7.80;99.90
35894;DHT22;21994;48.204;16.516;2024-02-15T06:15:26;7.70;99.90
35894;DHT22;21994;48.204;16.516;2024-02-15T06:17:52;7.80;99.90
35894;DHT22;21994;48.204;16.516;2024-02-15T06:20:18;7.80;99.90
35894;DHT22;21994;48.204;16.516;2024-02-15T06:22:45;7.90;99.90
35894;DHT22;21994;48.204;16.516;2024-02-15T06:25:11;7.80;99.90
35894;DHT22;21994;48.204;16.516;2024-02-15T06:27:38;7.80;99.90
35894;DHT22;21994;48.204;16.516;2024-02-15T06:30:06;7.70;99.90
35894;DHT22;21994;48.204;16.516;2024-02-15T06:32:54;7.70;99.90
35894;DHT22;21994;48.204;16.516;2024-02-15T06:35:38;7.90;99.90
35894;DHT22;21994;48.204;16.516;2024-02-15T06:38:23;7.90;99.90
35894;DHT22;21994;48.204;16.516;2024-02-15T06:41:08;7.90;99.90
35894;DHT22;21994;48.204;16.516;2024-02-15T06:43:36;8.00;99.90
35894;DHT22;21994;48.204;16.516;2024-02-15T06:46:02;7.90;99.90
35894;DHT22;21994;48.204;16.516;2024-02-15T06:48:31;8.10;99.90
35894;DHT22;21994;48.204;16.516;2024-02-15T06:50:57;8.10;99.90
35894;DHT22;21994;48.204;16.516;2024-02-15T06:53:23;8.00;99.90
35894;DHT22;21994;48.204;16.516;2024-02-15T06:55:49;7.90;99.90
35894;DHT22;21994;48.204;16.516;2024-02-15T06:58:16;7.90;99.90
35894;DHT22;21994;48.204;16.516;2024-02-15T07:00:42;7.90;99.90
35894;DHT22;21994;48.204;16.516;2024-02-15T07:03:08;7.90;99.90
35894;DHT22;21994;48.204;16.516;2024-02-15T07:05:34;7.90;99.90
35894;DHT22;21994;48.204;16.516;2024-02-15T07:08:01;7.90;99.90
35894;DHT22;21994;48.204;16.516;2024-02-15T07:10:26;7.90;99.90
35894;DHT22;21994;48.204;16.516;2024-02-15T07:12:52;8.00;99.90
35894;DHT22;21994;48.204;16.516;2024-02-15T07:15:18;8.00;99.90
35894;DHT22;21994;48.204;16.516;2024-02-15T07:17:44;8.00;99.90
35894;DHT22;21994;48.204;16.516;2024-02-15T07:20:10;8.20;99.90
35894;DHT22;21994;48.204;16.516;2024-02-15T07:22:37;8.30;99.90
35894;DHT22;21994;48.204;16.516;2024-02-15T07:25:04;8.30;99.90
35894;DHT22;21994;48.204;16.516;2024-02-15T07:27:30;8.30;99.90
35894;DHT22;21994;48.204;16.516;2024-02-15T07:29:58;8.40;99.90
35894;DHT22;21994;48.204;16.516;2024-02-15T07:32:23;8.60;99.90
35894;DHT22;21994;48.204;16.516;2024-02-15T07:34:49;8.90;99.90
35894;DHT22;21994;48.204;16.516;2024-02-15T07:37:15;8.80;99.90
35894;DHT22;21994;48.204;16.516;2024-02-15T07:39:41;8.70;99.90
35894;DHT22;21994;48.204;16.516;2024-02-15T07:42:07;8.70;99.90
35894;DHT22;21994;48.204;16.516;2024-02-15T07:44:36;8.70;99.90
35894;DHT22;21994;48.204;16.516;2024-02-15T07:47:02;8.70;99.90
35894;DHT22;21994;48.204;16.516;2024-02-15T07:49:31;8.70;99.90
35894;DHT22;21994;48.204;16.516;2024-02-15T07:51:56;8.70;99.90
35894;DHT22;21994;48.204;16.516;2024-02-15T07:54:23;8.70;99.90
35894;DHT22;21994;48.204;16.516;2024-02-15T07:56:49;8.70;99.90
35894;DHT22;21994;48.204;16.516;2024-02-15T07:59:15;8.70;99.90
35894;DHT22;21994;48.204;16.516;2024-02-15T08:01:42;8.80;99.90
35894;DHT22;21994;48.204;16.516;2024-02-15T08:04:09;8.90;99.90
35894;DHT22;21994;48.204;16.516;2024-02-15T08:06:34;9.00;99.90
35894;DHT22;21994;48.204;16.516;2024-02-15T08:09:02;9.10;99.90
35894;DHT22;21994;48.204;16.516;2024-02-15T08:11:30;9.20;99.90
35894;DHT22;21994;48.204;16.516;2024-02-15T08:13:56;9.30;99.90
35894;DHT22;21994;48.204;16.516;2024-02-15T08:16:24;9.30;99.90
35894;DHT22;21994;48.204;16.516;2024-02-15T08:18:53;9.30;99.90
35894;DHT22;21994;48.204;16.516;2024-02-15T08:21:32;9.50;99.90
35894;DHT22;21994;48.204;16.516;2024-02-15T08:24:02;9.70;99.90
35894;DHT22;21994;48.204;16.516;2024-02-15T08:26:35;9.90;99.90
35894;DHT22;21994;48.204;16.516;2024-02-15T08:29:03;10.00;99.90
35894;DHT22;21994;48.204;16.516;2024-02-15T08:31:29;10.10;99.90
35894;DHT22;21994;48.204;16.516;2024-02-15T08:33:59;10.10;99.90
35894;DHT22;21994;48.204;16.516;2024-02-15T08:36:26;10.00;99.90
35894;DHT22;21994;48.204;16.516;2024-02-15T08:38:52;10.00;99.90
35894;DHT22;21994;48.204;16.516;2024-02-15T08:41:17;10.00;99.90
35894;DHT22;21994;48.204;16.516;2024-02-15T08:43:44;10.20;99.90
35894;DHT22;21994;48.204;16.516;2024-02-15T08:46:09;10.50;99.90
35894;DHT22;21994;48.204;16.516;2024-02-15T08:48:35;10.50;99.90
35894;DHT22;21994;48.204;16.516;2024-02-15T08:51:02;10.60;99.90
35894;DHT22;21994;48.204;16.516;2024-02-15T08:53:27;10.70;99.90
35894;DHT22;21994;48.204;16.516;2024-02-15T08:55:53;10.70;99.90
35894;DHT22;21994;48.204;16.516;2024-02-15T08:58:19;10.70;99.90
35894;DHT22;21994;48.204;16.516;2024-02-15T09:00:46;10.80;99.90
35894;DHT22;21994;48.204;16.516;2024-02-15T09:03:12;10.80;99.90
35894;DHT22;21994;48.204;16.516;2024-02-15T09:05:38;10.80;99.90
35894;DHT22;21994;48.204;16.516;2024-02-15T09:08:06;10.90;99.90
35894;DHT22;21994;48.204;16.516;2024-02-15T09:10:31;11.00;99.90
35894;DHT22;21994;48.204;16.516;2024-02-15T09:12:57;11.20;99.90
35894;DHT22;21994;48.204;16.516;2024-02-15T09:15:23;11.10;99.90
35894;DHT22;21994;48.204;16.516;2024-02-15T09:17:50;11.30;99.90
35894;DHT22;21994;48.204;16.516;2024-02-15T09:20:16;11.40;99.90
35894;DHT22;21994;48.204;16.516;2024-02-15T09:22:49;11.20;99.90
35894;DHT22;21994;48.204;16.516;2024-02-15T09:25:16;11.40;99.90
35894;DHT22;21994;48.204;16.516;2024-02-15T09:27:43;11.60;99.90
35894;DHT22;21994;48.204;16.516;2024-02-15T09:30:09;11.80;99.90
35894;DHT22;21994;48.204;16.516;2024-02-15T09:32:36;11.80;99.90
35894;DHT22;21994;48.204;16.516;2024-02-15T09:35:02;11.90;99.90
35894;DHT22;21994;48.204;16.516;2024-02-15T09:37:29;12.00;99.90
35894;DHT22;21994;48.204;16.516;2024-02-15T09:39:55;12.20;99.90
35894;DHT22;21994;48.204;16.516;2024-02-15T09:42:21;12.30;99.90
35894;DHT22;21994;48.204;16.516;2024-02-15T09:44:47;12.40;99.90
35894;DHT22;21994;48.204;16.516;2024-02-15T09:47:12;12.50;99.90
35894;DHT22;21994;48.204;16.516;2024-02-15T09:49:41;12.60;99.90
35894;DHT22;21994;48.204;16.516;2024-02-15T09:52:07;12.60;99.90
35894;DHT22;21994;48.204;16.516;2024-02-15T09:54:40;12.70;99.90
35894;DHT22;21994;48.204;16.516;2024-02-15T09:57:08;12.70;99.90
35894;DHT22;21994;48.204;16.516;2024-02-15T09:59:36;12.80;99.90
35894;DHT22;21994;48.204;16.516;2024-02-15T10:02:01;12.80;99.90
35894;DHT22;21994;48.204;16.516;2024-02-15T10:04:28;12.80;99.90
35894;DHT22;21994;48.204;16.516;2024-02-15T10:06:53;12.80;99.90
35894;DHT22;21994;48.204;16.516;2024-02-15T10:09:23;12.80;99.90
35894;DHT22;21994;48.204;16.516;2024-02-15T10:11:53;13.00;99.90
35894;DHT22;21994;48.204;16.516;2024-02-15T10:14:23;13.20;99.90
35894;DHT22;21994;48.204;16.516;2024-02-15T10:16:49;13.30;99.90
35894;DHT22;21994;48.204;16.516;2024-02-15T10:19:15;13.40;99.90
35894;DHT22;21994;48.204;16.516;2024-02-15T10:21:42;13.70;99.90
35894;DHT22;21994;48.204;16.516;2024-02-15T10:24:08;14.00;99.90
35894;DHT22;21994;48.204;16.516;2024-02-15T10:26:35;14.60;99.90
35894;DHT22;21994;48.204;16.516;2024-02-15T10:29:08;14.70;99.90
35894;DHT22;21994;48.204;16.516;2024-02-15T10:31:38;14.70;99.90
35894;DHT22;21994;48.204;16.516;2024-02-15T10:34:07;14.80;99.90
35894;DHT22;21994;48.204;16.516;2024-02-15T10:36:33;14.60;99.90
35894;DHT22;21994;48.204;16.516;2024-02-15T10:39:12;14.80;99.90
35894;DHT22;21994;48.204;16.516;2024-02-15T10:41:45;14.80;99.90
35894;DHT22;21994;48.204;16.516;2024-02-15T10:44:21;14.80;99.90
35894;DHT22;21994;48.204;16.516;2024-02-15T10:46:49;14.90;99.90
35894;DHT22;21994;48.204;16.516;2024-02-15T10:49:22;15.10;99.90
35894;DHT22;21994;48.204;16.516;2024-02-15T10:51:56;15.30;99.90
35894;DHT22;21994;48.204;16.516;2024-02-15T10:54:34;15.50;99.90
35894;DHT22;21994;48.204;16.516;2024-02-15T10:57:07;15.80;99.90
35894;DHT22;21994;48.204;16.516;2024-02-15T10:59:35;15.90;99.90
35894;DHT22;21994;48.204;16.516;2024-02-15T11:02:14;15.70;99.90
35894;DHT22;21994;48.204;16.516;2024-02-15T11:05:01;15.50;99.90
35894;DHT22;21994;48.204;16.516;2024-02-15T11:07:30;15.40;99.90
35894;DHT22;21994;48.204;16.516;2024-02-15T11:09:56;15.40;99.90
35894;DHT22;21994;48.204;16.516;2024-02-15T11:12:26;15.40;99.90
35894;DHT22;21994;48.204;16.516;2024-02-15T11:14:53;15.40;99.90
35894;DHT22;21994;48.204;16.516;2024-02-15T11:20:05;15.20;99.90
35894;DHT22;21994;48.204;16.516;2024-02-15T11:22:36;15.00;99.90
35894;DHT22;21994;48.204;16.516;2024-02-15T11:25:03;14.70;99.90
35894;DHT22;21994;48.204;16.516;2024-02-15T11:27:37;14.50;99.90
35894;DHT22;21994;48.204;16.516;2024-02-15T11:30:07;14.40;99.90
35894;DHT22;21994;48.204;16.516;2024-02-15T11:42:45;14.90;99.90
35894;DHT22;21994;48.204;16.516;2024-02-15T11:45:13;15.10;99.90
35894;DHT22;21994;48.204;16.516;2024-02-15T11:47:39;15.20;99.90
35894;DHT22;21994;48.204;16.516;2024-02-15T11:50:08;15.30;99.90
35894;DHT22;21994;48.204;16.516;2024-02-15T11:52:38;15.40;99.90
35894;DHT22;21994;48.204;16.516;2024-02-15T11:55:06;15.60;99.90
35894;DHT22;21994;48.204;16.516;2024-02-15T11:57:41;15.60;99.90
35894;DHT22;21994;48.204;16.516;2024-02-15T12:00:35;15.40;99.90
35894;DHT22;21994;48.204;16.516;2024-02-15T12:03:22;15.50;99.90
35894;DHT22;21994;48.204;16.516;2024-02-15T12:06:07;15.40;99.90
35894;DHT22;21994;48.204;16.516;2024-02-15T12:08:52;15.40;99.90
35894;DHT22;21994;48.204;16.516;2024-02-15T12:11:37;15.50;99.90
35894;DHT22;21994;48.204;16.516;2024-02-15T12:14:22;15.50;99.90
35894;DHT22;21994;48.204;16.516;2024-02-15T12:17:08;15.30;99.90
35894;DHT22;21994;48.204;16.516;2024-02-15T12:19:56;15.30;99.90
35894;DHT22;21994;48.204;16.516;2024-02-15T12:22:32;15.20;99.90
35894;DHT22;21994;48.204;16.516;2024-02-15T12:25:01;15.10;99.90
35894;DHT22;21994;48.204;16.516;2024-02-15T12:27:37;15.30;99.90
35894;DHT22;21994;48.204;16.516;2024-02-15T12:30:04;15.30;99.90
35894;DHT22;21994;48.204;16.516;2024-02-15T12:32:32;15.30;99.90
35894;DHT22;21994;48.204;16.516;2024-02-15T12:35:11;15.20;99.90
35894;DHT22;21994;48.204;16.516;2024-02-15T12:37:48;15.20;99.90
35894;DHT22;21994;48.204;16.516;2024-02-15T12:40:35;15.00;99.90
35894;DHT22;21994;48.204;16.516;2024-02-15T12:43:01;14.90;99.90
35894;DHT22;21994;48.204;16.516;2024-02-15T12:45:30;14.90;99.90
35894;DHT22;21994;48.204;16.516;2024-02-15T12:47:57;14.70;99.90
35894;DHT22;21994;48.204;16.516;2024-02-15T12:50:23;14.60;99.90
35894;DHT22;21994;48.204;16.516;2024-02-15T12:52:53;14.60;99.90
35894;DHT22;21994;48.204;16.516;2024-02-15T12:55:24;14.60;99.90
35894;DHT22;21994;48.204;16.516;2024-02-15T12:57:50;14.70;99.90
35894;DHT22;21994;48.204;16.516;2024-02-15T13:00:18;14.70;99.90
35894;DHT22;21994;48.204;16.516;2024-02-15T13:02:46;14.80;99.90
35894;DHT22;21994;48.204;16.516;2024-02-15T13:05:17;15.20;99.90
35894;DHT22;21994;48.204;16.516;2024-02-15T13:07:45;15.60;99.70
35894;DHT22;21994;48.204;16.516;2024-02-15T13:10:11;15.90;98.60
35894;DHT22;21994;48.204;16.516;2024-02-15T13:12:40;16.10;98.20
35894;DHT22;21994;48.204;16.516;2024-02-15T13:15:10;16.20;98.60
35894;DHT22;21994;48.204;16.516;2024-02-15T13:17:40;16.60;99.10
35894;DHT22;21994;48.204;16.516;2024-02-15T13:20:10;16.80;97.00
35894;DHT22;21994;48.204;16.516;2024-02-15T13:22:39;17.00;97.30
35894;DHT22;21994;48.204;16.516;2024-02-15T13:25:06;16.90;96.40
35894;DHT22;21994;48.204;16.516;2024-02-15T13:27:38;16.80;96.40
35894;DHT22;21994;48.204;16.516;2024-02-15T13:30:04;16.60;97.30
35894;DHT22;21994;48.204;16.516;2024-02-15T13:32:35;16.60;97.20
35894;DHT22;21994;48.204;16.516;2024-02-15T13:35:02;16.90;97.10
35894;DHT22;21994;48.204;16.516;2024-02-15T13:37:56;17.20;96.40
35894;DHT22;21994;48.204;16.516;2024-02-15T13:40:25;17.40;96.20
35894;DHT22;21994;48.204;16.516;2024-02-15T13:42:57;17.40;95.30
35894;DHT22;21994;48.204;16.516;2024-02-15T13:45:30;17.00;95.30
35894;DHT22;21994;48.204;16.516;2024-02-15T13:48:02;16.90;95.40
35894;DHT22;21994;48.204;16.516;2024-02-15T13:50:30;16.50;96.10
35894;DHT22;21994;48.204;16.516;2024-02-15T13:52:56;16.20;95.60
35894;DHT22;21994;48.204;16.516;2024-02-15T13:55:24;16.00;96.50
35894;DHT22;21994;48.204;16.516;2024-02-15T13:57:53;15.80;96.70
35894;DHT22;21994;48.204;16.516;2024-02-15T14:00:20;15.60;96.80
35894;DHT22;21994;48.204;16.516;2024-02-15T14:02:50;15.40;97.20
35894;DHT22;21994;48.204;16.516;2024-02-15T14:05:16;15.00;97.60
35894;DHT22;21994;48.204;16.516;2024-02-15T14:07:49;14.90;97.80
35894;DHT22;21994;48.204;16.516;2024-02-15T14:10:15;14.70;98.40
35894;DHT22;21994;48.204;16.516;2024-02-15T14:12:45;14.60;98.30
35894;DHT22;21994;48.204;16.516;2024-02-15T14:15:11;14.60;98.40
35894;DHT22;21994;48.204;16.516;2024-02-15T14:17:37;14.60;98.90
35894;DHT22;21994;48.204;16.516;2024-02-15T14:20:03;14.90;98.70
35894;DHT22;21994;48.204;16.516;2024-02-15T14:22:34;15.20;98.70
35894;DHT22;21994;48.204;16.516;2024-02-15T14:25:00;15.60;97.90
35894;DHT22;21994;48.204;16.516;2024-02-15T14:27:26;16.10;97.20
35894;DHT22;21994;48.204;16.516;2024-02-15T14:29:52;16.40;96.40
35894;DHT22;21994;48.204;16.516;2024-02-15T14:32:36;16.60;96.30
35894;DHT22;21994;48.204;16.516;2024-02-15T14:35:21;16.20;97.20
35894;DHT22;21994;48.204;16.516;2024-02-15T14:37:47;16.00;98.60
35894;DHT22;21994;48.204;16.516;2024-02-15T14:40:12;15.90;99.20
35894;DHT22;21994;48.204;16.516;2024-02-15T14:42:39;15.90;99.60
35894;DHT22;21994;48.204;16.516;2024-02-15T14:45:10;15.80;99.20
35894;DHT22;21994;48.204;16.516;2024-02-15T14:47:37;15.50;99.10
35894;DHT22;21994;48.204;16.516;2024-02-15T14:50:03;15.30;99.20
35894;DHT22;21994;48.204;16.516;2024-02-15T14:52:29;14.90;99.90
35894;DHT22;21994;48.204;16.516;2024-02-15T14:54:56;14.60;99.90
35894;DHT22;21994;48.204;16.516;2024-02-15T14:57:22;14.40;99.90
35894;DHT22;21994;48.204;16.516;2024-02-15T14:59:49;14.20;99.90
35894;DHT22;21994;48.204;16.516;2024-02-15T15:02:15;14.00;99.90
35894;DHT22;21994;48.204;16.516;2024-02-15T15:04:41;13.80;99.90
35894;DHT22;21994;48.204;16.516;2024-02-15T15:07:33;13.60;99.90
35894;DHT22;21994;48.204;16.516;2024-02-15T15:10:17;13.40;99.90
35894;DHT22;21994;48.204;16.516;2024-02-15T15:13:01;13.20;99.90
35894;DHT22;21994;48.204;16.516;2024-02-15T15:15:28;13.10;99.90
35894;DHT22;21994;48.204;16.516;2024-02-15T15:17:54;12.90;99.90
35894;DHT22;21994;48.204;16.516;2024-02-15T15:20:21;12.90;99.90
35894;DHT22;21994;48.204;16.516;2024-02-15T15:22:46;12.80;99.90
35894;DHT22;21994;48.204;16.516;2024-02-15T15:25:12;12.70;99.90
35894;DHT22;21994;48.204;16.516;2024-02-15T15:27:38;12.50;99.90
35894;DHT22;21994;48.204;16.516;2024-02-15T15:30:05;12.40;99.90
35894;DHT22;21994;48.204;16.516;2024-02-15T15:32:31;12.30;99.90
35894;DHT22;21994;48.204;16.516;2024-02-15T15:34:59;12.10;99.90
35894;DHT22;21994;48.204;16.516;2024-02-15T15:37:24;12.00;99.90
35894;DHT22;21994;48.204;16.516;2024-02-15T15:39:50;12.00;99.90
35894;DHT22;21994;48.204;16.516;2024-02-15T15:42:16;11.80;99.90
35894;DHT22;21994;48.204;16.516;2024-02-15T15:44:43;11.60;99.90
35894;DHT22;21994;48.204;16.516;2024-02-15T15:47:09;11.60;99.90